sensor_id;sensor_type;location;lat;lon;timestamp;P1;durP1;ratioP1;P2;durP2;ratioP2
5585;SDS011;2815;54.094;12.112;2023-09-30T00:01:49;12.95;;;2.10;;
5585;SDS011;2815;54.094;12.112;2023-09-30T00:04:20;14.82;;;2.67;;
5585;SDS011;2815;54.094;12.112;2023-09-30T00:06:48;11.73;;;2.17;;
5585;SDS011;2815;54.094;12.112;2023-09-30T00:09:16;13.75;;;2.67;;
5585;SDS011;2815;54.094;12.112;2023-09-30T00:11:44;7.82;;;1.95;;
5585;SDS011;2815;54.094;12.112;2023-09-30T00:14:12;14.85;;;2.47;;
5585;SDS011;2815;54.094;12.112;2023-09-30T00:16:40;14.07;;;2.30;;
5585;SDS011;2815;54.094;12.112;2023-09-30T00:19:08;9.57;;;2.33;;
5585;SDS011;2815;54.094;12.112;2023-09-30T00:21:38;11.02;;;2.50;;
5585;SDS011;2815;54.094;12.112;2023-09-30T00:24:06;12.20;;;1.98;;
5585;SDS011;2815;54.094;12.112;2023-09-30T00:26:34;9.25;;;1.67;;
5585;SDS011;2815;54.094;12.112;2023-09-30T00:29:02;11.35;;;2.22;;
5585;SDS011;2815;54.094;12.112;2023-09-30T00:31:31;13.20;;;2.60;;
5585;SDS011;2815;54.094;12.112;2023-09-30T00:33:59;12.30;;;2.35;;
5585;SDS011;2815;54.094;12.112;2023-09-30T00:36:27;14.13;;;2.30;;
5585;SDS011;2815;54.094;12.112;2023-09-30T00:38:57;13.32;;;2.42;;
5585;SDS011;2815;54.094;12.112;2023-09-30T00:41:25;11.07;;;2.03;;
5585;SDS011;2815;54.094;12.112;2023-09-30T00:43:53;15.80;;;2.53;;
5585;SDS011;2815;54.094;12.112;2023-09-30T00:46:25;12.60;;;2.63;;
5585;SDS011;2815;54.094;12.112;2023-09-30T00:48:55;12.23;;;2.45;;
5585;SDS011;2815;54.094;12.112;2023-09-30T00:51:25;12.82;;;2.30;;
5585;SDS011;2815;54.094;12.112;2023-09-30T00:53:54;12.93;;;2.00;;
5585;SDS011;2815;54.094;12.112;2023-09-30T00:56:29;11.70;;;2.20;;
5585;SDS011;2815;54.094;12.112;2023-09-30T00:58:58;13.85;;;2.38;;
5585;SDS011;2815;54.094;12.112;2023-09-30T01:01:26;13.85;;;2.53;;
5585;SDS011;2815;54.094;12.112;2023-09-30T01:03:54;12.43;;;2.47;;
5585;SDS011;2815;54.094;12.112;2023-09-30T01:06:23;12.50;;;2.13;;
5585;SDS011;2815;54.094;12.112;2023-09-30T01:08:52;11.65;;;2.22;;
5585;SDS011;2815;54.094;12.112;2023-09-30T01:11:20;12.15;;;1.75;;
5585;SDS011;2815;54.094;12.112;2023-09-30T01:13:50;12.27;;;1.90;;
5585;SDS011;2815;54.094;12.112;2023-09-30T01:16:19;12.73;;;2.08;;
5585;SDS011;2815;54.094;12.112;2023-09-30T01:18:47;16.70;;;2.85;;
5585;SDS011;2815;54.094;12.112;2023-09-30T01:21:15;15.32;;;2.80;;
5585;SDS011;2815;54.094;12.112;2023-09-30T01:23:45;14.13;;;2.53;;
5585;SDS011;2815;54.094;12.112;2023-09-30T01:26:14;9.77;;;2.03;;
5585;SDS011;2815;54.094;12.112;2023-09-30T01:28:42;10.35;;;1.90;;
5585;SDS011;2815;54.094;12.112;2023-09-30T01:31:10;8.55;;;1.65;;
5585;SDS011;2815;54.094;12.112;2023-09-30T01:33:38;10.30;;;1.85;;
5585;SDS011;2815;54.094;12.112;2023-09-30T01:36:06;17.75;;;2.28;;
5585;SDS011;2815;54.094;12.112;2023-09-30T01:38:35;16.92;;;2.30;;
5585;SDS011;2815;54.094;12.112;2023-09-30T01:41:04;14.07;;;1.95;;
5585;SDS011;2815;54.094;12.112;2023-09-30T01:43:34;12.50;;;1.95;;
5585;SDS011;2815;54.094;12.112;2023-09-30T01:46:03;11.77;;;2.05;;
5585;SDS011;2815;54.094;12.112;2023-09-30T01:48:32;14.25;;;2.35;;
5585;SDS011;2815;54.094;12.112;2023-09-30T01:51:01;6.30;;;1.73;;
5585;SDS011;2815;54.094;12.112;2023-09-30T01:53:29;16.83;;;2.40;;
5585;SDS011;2815;54.094;12.112;2023-09-30T01:55:57;8.70;;;1.65;;
5585;SDS011;2815;54.094;12.112;2023-09-30T01:58:26;14.43;;;1.92;;
5585;SDS011;2815;54.094;12.112;2023-09-30T02:01:00;12.60;;;2.28;;
5585;SDS011;2815;54.094;12.112;2023-09-30T02:03:30;11.70;;;2.05;;
5585;SDS011;2815;54.094;12.112;2023-09-30T02:05:58;11.00;;;2.42;;
5585;SDS011;2815;54.094;12.112;2023-09-30T02:08:26;13.32;;;2.15;;
5585;SDS011;2815;54.094;12.112;2023-09-30T02:10:54;15.63;;;2.15;;
5585;SDS011;2815;54.094;12.112;2023-09-30T02:13:22;7.65;;;1.77;;
5585;SDS011;2815;54.094;12.112;2023-09-30T02:15:52;9.85;;;1.75;;
5585;SDS011;2815;54.094;12.112;2023-09-30T02:18:22;14.35;;;2.72;;
5585;SDS011;2815;54.094;12.112;2023-09-30T02:20:50;12.50;;;1.88;;
5585;SDS011;2815;54.094;12.112;2023-09-30T02:23:19;11.38;;;2.40;;
5585;SDS011;2815;54.094;12.112;2023-09-30T02:25:47;8.63;;;2.05;;
5585;SDS011;2815;54.094;12.112;2023-09-30T02:28:15;9.90;;;1.65;;
5585;SDS011;2815;54.094;12.112;2023-09-30T02:30:47;8.25;;;2.10;;
5585;SDS011;2815;54.094;12.112;2023-09-30T02:33:17;12.13;;;1.85;;
5585;SDS011;2815;54.094;12.112;2023-09-30T02:35:45;10.13;;;2.08;;
5585;SDS011;2815;54.094;12.112;2023-09-30T02:38:13;9.80;;;2.35;;
5585;SDS011;2815;54.094;12.112;2023-09-30T02:40:44;13.75;;;2.55;;
5585;SDS011;2815;54.094;12.112;2023-09-30T02:43:13;12.23;;;2.00;;
5585;SDS011;2815;54.094;12.112;2023-09-30T02:45:41;13.20;;;2.42;;
5585;SDS011;2815;54.094;12.112;2023-09-30T02:48:09;11.80;;;2.13;;
5585;SDS011;2815;54.094;12.112;2023-09-30T02:50:38;9.85;;;1.85;;
5585;SDS011;2815;54.094;12.112;2023-09-30T02:53:07;8.43;;;2.53;;
5585;SDS011;2815;54.094;12.112;2023-09-30T02:55:35;10.68;;;1.80;;
5585;SDS011;2815;54.094;12.112;2023-09-30T02:58:03;13.98;;;1.88;;
5585;SDS011;2815;54.094;12.112;2023-09-30T03:00:31;13.00;;;2.05;;
5585;SDS011;2815;54.094;12.112;2023-09-30T03:03:01;12.93;;;2.08;;
5585;SDS011;2815;54.094;12.112;2023-09-30T03:05:30;11.38;;;1.90;;
5585;SDS011;2815;54.094;12.112;2023-09-30T03:08:01;11.70;;;2.67;;
5585;SDS011;2815;54.094;12.112;2023-09-30T03:10:29;9.38;;;1.90;;
5585;SDS011;2815;54.094;12.112;2023-09-30T03:12:57;14.90;;;2.40;;
5585;SDS011;2815;54.094;12.112;2023-09-30T03:15:35;13.93;;;2.40;;
5585;SDS011;2815;54.094;12.112;2023-09-30T03:18:05;8.40;;;2.00;;
5585;SDS011;2815;54.094;12.112;2023-09-30T03:20:33;15.73;;;2.33;;
5585;SDS011;2815;54.094;12.112;2023-09-30T03:23:04;9.15;;;2.13;;
5585;SDS011;2815;54.094;12.112;2023-09-30T03:25:32;14.43;;;2.60;;
5585;SDS011;2815;54.094;12.112;2023-09-30T03:28:00;10.23;;;2.72;;
5585;SDS011;2815;54.094;12.112;2023-09-30T03:30:28;11.73;;;2.25;;
5585;SDS011;2815;54.094;12.112;2023-09-30T03:32:56;12.98;;;2.22;;
5585;SDS011;2815;54.094;12.112;2023-09-30T03:35:24;16.77;;;2.10;;
5585;SDS011;2815;54.094;12.112;2023-09-30T03:37:52;11.35;;;2.13;;
5585;SDS011;2815;54.094;12.112;2023-09-30T03:40:22;9.05;;;1.80;;
5585;SDS011;2815;54.094;12.112;2023-09-30T03:42:55;12.65;;;2.35;;
5585;SDS011;2815;54.094;12.112;2023-09-30T03:45:22;9.63;;;1.80;;
5585;SDS011;2815;54.094;12.112;2023-09-30T03:47:51;12.82;;;2.55;;
5585;SDS011;2815;54.094;12.112;2023-09-30T03:50:19;7.05;;;1.65;;
5585;SDS011;2815;54.094;12.112;2023-09-30T03:52:50;14.02;;;2.60;;
5585;SDS011;2815;54.094;12.112;2023-09-30T03:55:18;14.73;;;2.35;;
5585;SDS011;2815;54.094;12.112;2023-09-30T03:57:49;10.07;;;2.25;;
5585;SDS011;2815;54.094;12.112;2023-09-30T04:00:18;12.32;;;1.98;;
5585;SDS011;2815;54.094;12.112;2023-09-30T04:02:47;10.18;;;2.50;;
5585;SDS011;2815;54.094;12.112;2023-09-30T04:05:17;13.07;;;2.80;;
5585;SDS011;2815;54.094;12.112;2023-09-30T04:07:46;15.07;;;2.20;;
5585;SDS011;2815;54.094;12.112;2023-09-30T04:10:14;12.48;;;2.47;;
5585;SDS011;2815;54.094;12.112;2023-09-30T04:12:45;13.98;;;2.33;;
5585;SDS011;2815;54.094;12.112;2023-09-30T04:15:14;13.43;;;2.28;;
5585;SDS011;2815;54.094;12.112;2023-09-30T04:17:42;14.20;;;2.28;;
5585;SDS011;2815;54.094;12.112;2023-09-30T04:20:11;11.52;;;2.70;;
5585;SDS011;2815;54.094;12.112;2023-09-30T04:22:44;20.70;;;2.58;;
5585;SDS011;2815;54.094;12.112;2023-09-30T04:25:15;18.57;;;2.60;;
5585;SDS011;2815;54.094;12.112;2023-09-30T04:27:44;15.65;;;3.22;;
5585;SDS011;2815;54.094;12.112;2023-09-30T04:30:16;12.75;;;2.33;;
5585;SDS011;2815;54.094;12.112;2023-09-30T04:32:45;15.98;;;2.65;;
5585;SDS011;2815;54.094;12.112;2023-09-30T04:35:13;10.30;;;1.83;;
5585;SDS011;2815;54.094;12.112;2023-09-30T04:37:41;13.73;;;2.05;;
5585;SDS011;2815;54.094;12.112;2023-09-30T04:40:10;11.95;;;2.22;;
5585;SDS011;2815;54.094;12.112;2023-09-30T04:42:42;10.23;;;1.88;;
5585;SDS011;2815;54.094;12.112;2023-09-30T04:45:11;14.60;;;2.38;;
5585;SDS011;2815;54.094;12.112;2023-09-30T04:47:42;10.25;;;2.13;;
5585;SDS011;2815;54.094;12.112;2023-09-30T04:50:11;9.68;;;2.50;;
5585;SDS011;2815;54.094;12.112;2023-09-30T04:52:43;12.23;;;2.40;;
5585;SDS011;2815;54.094;12.112;2023-09-30T04:55:12;8.18;;;1.90;;
5585;SDS011;2815;54.094;12.112;2023-09-30T04:57:43;11.80;;;2.22;;
5585;SDS011;2815;54.094;12.112;2023-09-30T05:00:12;9.15;;;2.10;;
5585;SDS011;2815;54.094;12.112;2023-09-30T05:02:42;10.70;;;2.30;;
5585;SDS011;2815;54.094;12.112;2023-09-30T05:05:11;11.93;;;2.38;;
5585;SDS011;2815;54.094;12.112;2023-09-30T05:07:41;14.63;;;2.40;;
5585;SDS011;2815;54.094;12.112;2023-09-30T05:10:10;15.10;;;2.70;;
5585;SDS011;2815;54.094;12.112;2023-09-30T05:12:40;8.00;;;1.95;;
5585;SDS011;2815;54.094;12.112;2023-09-30T05:15:13;9.13;;;2.67;;
5585;SDS011;2815;54.094;12.112;2023-09-30T05:17:45;14.40;;;2.45;;
5585;SDS011;2815;54.094;12.112;2023-09-30T05:20:14;9.45;;;2.20;;
5585;SDS011;2815;54.094;12.112;2023-09-30T05:22:44;12.82;;;2.50;;
5585;SDS011;2815;54.094;12.112;2023-09-30T05:25:13;10.90;;;2.75;;
5585;SDS011;2815;54.094;12.112;2023-09-30T05:27:43;10.15;;;2.90;;
5585;SDS011;2815;54.094;12.112;2023-09-30T05:30:12;12.35;;;2.60;;
5585;SDS011;2815;54.094;12.112;2023-09-30T05:32:42;12.48;;;2.75;;
5585;SDS011;2815;54.094;12.112;2023-09-30T05:35:11;16.17;;;2.70;;
5585;SDS011;2815;54.094;12.112;2023-09-30T05:37:40;12.48;;;3.05;;
5585;SDS011;2815;54.094;12.112;2023-09-30T05:40:08;9.30;;;2.45;;
5585;SDS011;2815;54.094;12.112;2023-09-30T05:42:46;14.40;;;2.15;;
5585;SDS011;2815;54.094;12.112;2023-09-30T05:45:15;11.30;;;2.40;;
5585;SDS011;2815;54.094;12.112;2023-09-30T05:47:43;11.05;;;2.65;;
5585;SDS011;2815;54.094;12.112;2023-09-30T05:50:16;17.15;;;2.38;;
5585;SDS011;2815;54.094;12.112;2023-09-30T05:52:44;10.20;;;2.28;;
5585;SDS011;2815;54.094;12.112;2023-09-30T05:55:12;12.88;;;2.40;;
5585;SDS011;2815;54.094;12.112;2023-09-30T05:57:41;16.33;;;2.45;;
5585;SDS011;2815;54.094;12.112;2023-09-30T06:00:11;12.30;;;2.22;;
5585;SDS011;2815;54.094;12.112;2023-09-30T06:02:47;16.85;;;2.58;;
5585;SDS011;2815;54.094;12.112;2023-09-30T06:05:19;14.45;;;2.70;;
5585;SDS011;2815;54.094;12.112;2023-09-30T06:07:48;13.43;;;2.35;;
5585;SDS011;2815;54.094;12.112;2023-09-30T06:10:17;18.48;;;2.50;;
5585;SDS011;2815;54.094;12.112;2023-09-30T06:12:46;14.65;;;2.75;;
5585;SDS011;2815;54.094;12.112;2023-09-30T06:15:14;15.82;;;2.33;;
5585;SDS011;2815;54.094;12.112;2023-09-30T06:17:48;12.80;;;2.88;;
5585;SDS011;2815;54.094;12.112;2023-09-30T06:20:17;12.98;;;2.55;;
5585;SDS011;2815;54.094;12.112;2023-09-30T06:22:46;12.98;;;2.45;;
5585;SDS011;2815;54.094;12.112;2023-09-30T06:25:16;8.70;;;2.00;;
5585;SDS011;2815;54.094;12.112;2023-09-30T06:27:45;15.00;;;2.47;;
5585;SDS011;2815;54.094;12.112;2023-09-30T06:30:14;11.68;;;2.50;;
5585;SDS011;2815;54.094;12.112;2023-09-30T06:32:43;11.82;;;2.35;;
5585;SDS011;2815;54.094;12.112;2023-09-30T06:35:12;9.20;;;2.40;;
5585;SDS011;2815;54.094;12.112;2023-09-30T06:37:40;11.70;;;2.30;;
5585;SDS011;2815;54.094;12.112;2023-09-30T06:40:10;17.75;;;2.47;;
5585;SDS011;2815;54.094;12.112;2023-09-30T06:42:39;12.68;;;2.30;;
5585;SDS011;2815;54.094;12.112;2023-09-30T06:45:09;12.98;;;2.63;;
5585;SDS011;2815;54.094;12.112;2023-09-30T06:47:39;13.43;;;2.55;;
5585;SDS011;2815;54.094;12.112;2023-09-30T06:50:08;11.25;;;2.35;;
5585;SDS011;2815;54.094;12.112;2023-09-30T06:52:39;10.93;;;3.20;;
5585;SDS011;2815;54.094;12.112;2023-09-30T06:55:10;17.90;;;3.00;;
5585;SDS011;2815;54.094;12.112;2023-09-30T06:57:40;19.52;;;2.72;;
5585;SDS011;2815;54.094;12.112;2023-09-30T07:00:09;10.40;;;2.22;;
5585;SDS011;2815;54.094;12.112;2023-09-30T07:02:39;12.35;;;2.28;;
5585;SDS011;2815;54.094;12.112;2023-09-30T07:05:08;12.63;;;2.20;;
5585;SDS011;2815;54.094;12.112;2023-09-30T07:07:37;16.08;;;2.67;;
5585;SDS011;2815;54.094;12.112;2023-09-30T07:10:07;10.82;;;2.20;;
5585;SDS011;2815;54.094;12.112;2023-09-30T07:12:37;11.07;;;2.08;;
5585;SDS011;2815;54.094;12.112;2023-09-30T07:15:06;10.80;;;2.28;;
5585;SDS011;2815;54.094;12.112;2023-09-30T07:17:35;13.20;;;2.50;;
5585;SDS011;2815;54.094;12.112;2023-09-30T07:20:04;13.88;;;2.35;;
5585;SDS011;2815;54.094;12.112;2023-09-30T07:22:33;9.75;;;2.63;;
5585;SDS011;2815;54.094;12.112;2023-09-30T07:25:21;12.00;;;2.30;;
5585;SDS011;2815;54.094;12.112;2023-09-30T07:27:50;11.23;;;2.55;;
5585;SDS011;2815;54.094;12.112;2023-09-30T07:30:18;10.60;;;2.30;;
5585;SDS011;2815;54.094;12.112;2023-09-30T07:32:46;18.45;;;2.72;;
5585;SDS011;2815;54.094;12.112;2023-09-30T07:35:14;15.05;;;3.10;;
5585;SDS011;2815;54.094;12.112;2023-09-30T07:37:43;12.38;;;2.63;;
5585;SDS011;2815;54.094;12.112;2023-09-30T07:40:11;17.33;;;2.15;;
5585;SDS011;2815;54.094;12.112;2023-09-30T07:42:39;10.30;;;1.75;;
5585;SDS011;2815;54.094;12.112;2023-09-30T07:45:09;11.43;;;1.92;;
5585;SDS011;2815;54.094;12.112;2023-09-30T07:47:43;15.57;;;2.50;;
5585;SDS011;2815;54.094;12.112;2023-09-30T07:50:13;11.07;;;2.25;;
5585;SDS011;2815;54.094;12.112;2023-09-30T07:52:41;11.82;;;1.98;;
5585;SDS011;2815;54.094;12.112;2023-09-30T07:55:09;8.90;;;2.67;;
5585;SDS011;2815;54.094;12.112;2023-09-30T07:57:39;8.25;;;2.10;;
5585;SDS011;2815;54.094;12.112;2023-09-30T08:00:10;11.00;;;2.00;;
5585;SDS011;2815;54.094;12.112;2023-09-30T08:02:42;13.82;;;2.10;;
5585;SDS011;2815;54.094;12.112;2023-09-30T08:05:11;17.63;;;2.72;;
5585;SDS011;2815;54.094;12.112;2023-09-30T08:07:39;10.20;;;2.00;;
5585;SDS011;2815;54.094;12.112;2023-09-30T08:10:07;11.45;;;2.30;;
5585;SDS011;2815;54.094;12.112;2023-09-30T08:12:40;16.83;;;2.15;;
5585;SDS011;2815;54.094;12.112;2023-09-30T08:15:10;15.43;;;2.63;;
5585;SDS011;2815;54.094;12.112;2023-09-30T08:17:39;9.98;;;2.05;;
5585;SDS011;2815;54.094;12.112;2023-09-30T08:20:08;13.25;;;1.90;;
5585;SDS011;2815;54.094;12.112;2023-09-30T08:22:36;11.05;;;2.33;;
5585;SDS011;2815;54.094;12.112;2023-09-30T08:25:07;10.88;;;2.58;;
5585;SDS011;2815;54.094;12.112;2023-09-30T08:27:37;11.85;;;2.42;;
5585;SDS011;2815;54.094;12.112;2023-09-30T08:30:07;11.13;;;2.08;;
5585;SDS011;2815;54.094;12.112;2023-09-30T08:32:38;9.48;;;2.17;;
5585;SDS011;2815;54.094;12.112;2023-09-30T08:35:06;14.00;;;2.50;;
5585;SDS011;2815;54.094;12.112;2023-09-30T08:37:36;15.85;;;2.97;;
5585;SDS011;2815;54.094;12.112;2023-09-30T08:40:05;10.57;;;2.60;;
5585;SDS011;2815;54.094;12.112;2023-09-30T08:42:36;9.35;;;1.90;;
5585;SDS011;2815;54.094;12.112;2023-09-30T08:45:08;8.15;;;2.30;;
5585;SDS011;2815;54.094;12.112;2023-09-30T08:47:39;9.48;;;2.25;;
5585;SDS011;2815;54.094;12.112;2023-09-30T08:50:08;13.13;;;2.63;;
5585;SDS011;2815;54.094;12.112;2023-09-30T08:52:37;9.35;;;2.35;;
5585;SDS011;2815;54.094;12.112;2023-09-30T08:55:07;9.88;;;2.10;;
5585;SDS011;2815;54.094;12.112;2023-09-30T08:57:37;13.68;;;2.30;;
5585;SDS011;2815;54.094;12.112;2023-09-30T09:00:11;12.38;;;2.03;;
5585;SDS011;2815;54.094;12.112;2023-09-30T09:02:42;11.93;;;1.80;;
5585;SDS011;2815;54.094;12.112;2023-09-30T09:05:10;11.07;;;2.13;;
5585;SDS011;2815;54.094;12.112;2023-09-30T09:07:38;13.88;;;2.35;;
5585;SDS011;2815;54.094;12.112;2023-09-30T09:10:10;12.43;;;2.33;;
5585;SDS011;2815;54.094;12.112;2023-09-30T09:12:40;10.43;;;2.08;;
5585;SDS011;2815;54.094;12.112;2023-09-30T09:15:19;10.90;;;2.28;;
5585;SDS011;2815;54.094;12.112;2023-09-30T09:17:49;13.10;;;2.45;;
5585;SDS011;2815;54.094;12.112;2023-09-30T09:20:19;11.90;;;2.25;;
5585;SDS011;2815;54.094;12.112;2023-09-30T09:22:49;10.25;;;1.85;;
5585;SDS011;2815;54.094;12.112;2023-09-30T09:25:20;17.33;;;1.95;;
5585;SDS011;2815;54.094;12.112;2023-09-30T09:27:50;10.65;;;1.95;;
5585;SDS011;2815;54.094;12.112;2023-09-30T09:30:21;15.20;;;2.22;;
5585;SDS011;2815;54.094;12.112;2023-09-30T09:32:56;14.10;;;2.10;;
5585;SDS011;2815;54.094;12.112;2023-09-30T09:35:27;8.27;;;1.60;;
5585;SDS011;2815;54.094;12.112;2023-09-30T09:37:57;10.18;;;1.92;;
5585;SDS011;2815;54.094;12.112;2023-09-30T09:40:26;10.13;;;2.03;;
5585;SDS011;2815;54.094;12.112;2023-09-30T09:42:55;11.15;;;1.95;;
5585;SDS011;2815;54.094;12.112;2023-09-30T09:45:25;7.40;;;2.03;;
5585;SDS011;2815;54.094;12.112;2023-09-30T09:47:56;11.20;;;2.00;;
5585;SDS011;2815;54.094;12.112;2023-09-30T09:50:24;14.65;;;1.80;;
5585;SDS011;2815;54.094;12.112;2023-09-30T09:52:53;15.52;;;1.83;;
5585;SDS011;2815;54.094;12.112;2023-09-30T09:55:22;9.05;;;1.60;;
5585;SDS011;2815;54.094;12.112;2023-09-30T09:57:51;9.50;;;1.98;;
5585;SDS011;2815;54.094;12.112;2023-09-30T10:00:19;10.52;;;2.08;;
5585;SDS011;2815;54.094;12.112;2023-09-30T10:02:50;12.57;;;1.90;;
5585;SDS011;2815;54.094;12.112;2023-09-30T10:05:20;14.38;;;1.77;;
5585;SDS011;2815;54.094;12.112;2023-09-30T10:07:50;9.98;;;1.58;;
5585;SDS011;2815;54.094;12.112;2023-09-30T10:10:20;13.90;;;1.85;;
5585;SDS011;2815;54.094;12.112;2023-09-30T10:12:49;10.70;;;1.88;;
5585;SDS011;2815;54.094;12.112;2023-09-30T10:18:08;16.10;;;1.80;;
5585;SDS011;2815;54.094;12.112;2023-09-30T10:20:43;9.77;;;1.33;;
5585;SDS011;2815;54.094;12.112;2023-09-30T10:23:17;13.68;;;1.40;;
5585;SDS011;2815;54.094;12.112;2023-09-30T10:25:45;10.93;;;1.40;;
5585;SDS011;2815;54.094;12.112;2023-09-30T10:31:10;6.95;;;1.50;;
5585;SDS011;2815;54.094;12.112;2023-09-30T10:36:47;8.10;;;1.20;;
5585;SDS011;2815;54.094;12.112;2023-09-30T10:39:52;11.45;;;1.38;;
5585;SDS011;2815;54.094;12.112;2023-09-30T10:51:11;11.32;;;1.38;;
5585;SDS011;2815;54.094;12.112;2023-09-30T10:53:47;12.05;;;1.50;;
5585;SDS011;2815;54.094;12.112;2023-09-30T10:56:20;9.68;;;1.40;;
5585;SDS011;2815;54.094;12.112;2023-09-30T10:58:49;8.27;;;1.30;;
5585;SDS011;2815;54.094;12.112;2023-09-30T11:01:18;8.75;;;1.38;;
5585;SDS011;2815;54.094;12.112;2023-09-30T11:03:48;12.35;;;1.67;;
5585;SDS011;2815;54.094;12.112;2023-09-30T11:06:18;12.18;;;1.65;;
5585;SDS011;2815;54.094;12.112;2023-09-30T11:08:52;6.88;;;1.60;;
5585;SDS011;2815;54.094;12.112;2023-09-30T11:14:16;7.65;;;1.05;;
5585;SDS011;2815;54.094;12.112;2023-09-30T11:16:45;4.78;;;1.30;;
5585;SDS011;2815;54.094;12.112;2023-09-30T11:19:13;9.15;;;1.00;;
5585;SDS011;2815;54.094;12.112;2023-09-30T11:21:41;11.50;;;1.70;;
5585;SDS011;2815;54.094;12.112;2023-09-30T11:24:13;5.90;;;1.42;;
5585;SDS011;2815;54.094;12.112;2023-09-30T11:26:41;11.82;;;1.45;;
5585;SDS011;2815;54.094;12.112;2023-09-30T11:29:10;14.63;;;1.42;;
5585;SDS011;2815;54.094;12.112;2023-09-30T11:31:40;8.15;;;1.38;;
5585;SDS011;2815;54.094;12.112;2023-09-30T11:34:09;7.53;;;1.23;;
5585;SDS011;2815;54.094;12.112;2023-09-30T11:36:38;7.55;;;1.13;;
5585;SDS011;2815;54.094;12.112;2023-09-30T11:39:09;7.38;;;1.17;;
5585;SDS011;2815;54.094;12.112;2023-09-30T11:41:39;6.60;;;1.00;;
5585;SDS011;2815;54.094;12.112;2023-09-30T11:44:08;6.90;;;1.20;;
5585;SDS011;2815;54.094;12.112;2023-09-30T11:46:47;7.70;;;1.40;;
5585;SDS011;2815;54.094;12.112;2023-09-30T11:49:25;7.78;;;2.25;;
5585;SDS011;2815;54.094;12.112;2023-09-30T11:51:57;9.98;;;1.27;;
5585;SDS011;2815;54.094;12.112;2023-09-30T11:54:30;9.93;;;1.63;;
5585;SDS011;2815;54.094;12.112;2023-09-30T11:59:30;8.30;;;1.40;;
5585;SDS011;2815;54.094;12.112;2023-09-30T12:01:58;8.40;;;1.48;;
5585;SDS011;2815;54.094;12.112;2023-09-30T12:04:29;8.00;;;1.25;;
5585;SDS011;2815;54.094;12.112;2023-09-30T12:06:57;11.38;;;1.50;;
5585;SDS011;2815;54.094;12.112;2023-09-30T12:09:25;8.82;;;1.13;;
5585;SDS011;2815;54.094;12.112;2023-09-30T12:11:54;7.95;;;1.33;;
5585;SDS011;2815;54.094;12.112;2023-09-30T12:14:25;5.13;;;1.35;;
5585;SDS011;2815;54.094;12.112;2023-09-30T12:16:56;6.70;;;1.58;;
5585;SDS011;2815;54.094;12.112;2023-09-30T12:19:24;5.05;;;1.38;;
5585;SDS011;2815;54.094;12.112;2023-09-30T12:21:53;6.53;;;1.48;;
5585;SDS011;2815;54.094;12.112;2023-09-30T12:24:22;11.00;;;1.73;;
5585;SDS011;2815;54.094;12.112;2023-09-30T12:26:51;6.90;;;1.33;;
5585;SDS011;2815;54.094;12.112;2023-09-30T12:29:20;11.68;;;1.50;;
5585;SDS011;2815;54.094;12.112;2023-09-30T12:31:51;7.68;;;1.42;;
5585;SDS011;2815;54.094;12.112;2023-09-30T12:34:21;7.90;;;1.30;;
5585;SDS011;2815;54.094;12.112;2023-09-30T12:36:52;8.27;;;1.50;;
5585;SDS011;2815;54.094;12.112;2023-09-30T12:39:21;9.00;;;1.48;;
5585;SDS011;2815;54.094;12.112;2023-09-30T12:41:53;9.90;;;1.30;;
5585;SDS011;2815;54.094;12.112;2023-09-30T12:44:21;6.75;;;1.27;;
5585;SDS011;2815;54.094;12.112;2023-09-30T12:46:51;11.82;;;1.80;;
5585;SDS011;2815;54.094;12.112;2023-09-30T12:49:19;8.02;;;1.48;;
5585;SDS011;2815;54.094;12.112;2023-09-30T12:51:47;12.98;;;1.58;;
5585;SDS011;2815;54.094;12.112;2023-09-30T12:54:15;5.70;;;1.60;;
5585;SDS011;2815;54.094;12.112;2023-09-30T12:56:45;10.52;;;1.58;;
5585;SDS011;2815;54.094;12.112;2023-09-30T12:59:14;6.28;;;1.20;;
5585;SDS011;2815;54.094;12.112;2023-09-30T13:01:42;8.02;;;1.38;;
5585;SDS011;2815;54.094;12.112;2023-09-30T13:04:13;6.03;;;1.10;;
5585;SDS011;2815;54.094;12.112;2023-09-30T13:06:41;6.88;;;1.20;;
5585;SDS011;2815;54.094;12.112;2023-09-30T13:09:09;5.35;;;1.27;;
5585;SDS011;2815;54.094;12.112;2023-09-30T13:11:38;9.63;;;1.75;;
5585;SDS011;2815;54.094;12.112;2023-09-30T13:14:06;9.57;;;1.20;;
5585;SDS011;2815;54.094;12.112;2023-09-30T13:16:34;7.65;;;1.38;;
5585;SDS011;2815;54.094;12.112;2023-09-30T13:19:02;12.23;;;1.90;;
5585;SDS011;2815;54.094;12.112;2023-09-30T13:21:31;11.30;;;1.42;;
5585;SDS011;2815;54.094;12.112;2023-09-30T13:23:59;6.50;;;1.10;;
5585;SDS011;2815;54.094;12.112;2023-09-30T13:26:27;6.38;;;1.63;;
5585;SDS011;2815;54.094;12.112;2023-09-30T13:28:57;5.40;;;1.25;;
5585;SDS011;2815;54.094;12.112;2023-09-30T13:31:25;6.93;;;1.55;;
5585;SDS011;2815;54.094;12.112;2023-09-30T13:33:53;6.70;;;1.33;;
5585;SDS011;2815;54.094;12.112;2023-09-30T13:36:21;4.75;;;1.38;;
5585;SDS011;2815;54.094;12.112;2023-09-30T13:38:50;6.88;;;1.48;;
5585;SDS011;2815;54.094;12.112;2023-09-30T13:41:18;6.63;;;2.10;;
5585;SDS011;2815;54.094;12.112;2023-09-30T13:43:46;6.88;;;1.27;;
5585;SDS011;2815;54.094;12.112;2023-09-30T13:46:14;10.57;;;1.42;;
5585;SDS011;2815;54.094;12.112;2023-09-30T13:48:42;8.68;;;1.38;;
5585;SDS011;2815;54.094;12.112;2023-09-30T13:51:10;11.02;;;1.77;;
5585;SDS011;2815;54.094;12.112;2023-09-30T13:53:38;4.65;;;1.00;;
5585;SDS011;2815;54.094;12.112;2023-09-30T13:56:08;9.10;;;1.70;;
5585;SDS011;2815;54.094;12.112;2023-09-30T13:58:36;9.65;;;1.50;;
5585;SDS011;2815;54.094;12.112;2023-09-30T14:01:04;6.70;;;1.33;;
5585;SDS011;2815;54.094;12.112;2023-09-30T14:03:33;8.15;;;1.80;;
5585;SDS011;2815;54.094;12.112;2023-09-30T14:06:01;8.65;;;2.08;;
5585;SDS011;2815;54.094;12.112;2023-09-30T14:08:29;10.13;;;1.98;;
5585;SDS011;2815;54.094;12.112;2023-09-30T14:10:57;10.63;;;1.90;;
5585;SDS011;2815;54.094;12.112;2023-09-30T14:13:27;11.63;;;1.80;;
5585;SDS011;2815;54.094;12.112;2023-09-30T14:15:55;6.97;;;1.38;;
5585;SDS011;2815;54.094;12.112;2023-09-30T14:18:23;7.32;;;1.38;;
5585;SDS011;2815;54.094;12.112;2023-09-30T14:20:50;5.22;;;1.23;;
5585;SDS011;2815;54.094;12.112;2023-09-30T14:23:19;7.38;;;1.35;;
5585;SDS011;2815;54.094;12.112;2023-09-30T14:25:47;7.88;;;1.38;;
5585;SDS011;2815;54.094;12.112;2023-09-30T14:28:15;8.18;;;1.60;;
5585;SDS011;2815;54.094;12.112;2023-09-30T14:30:44;8.38;;;1.80;;
5585;SDS011;2815;54.094;12.112;2023-09-30T14:33:12;10.43;;;1.40;;
5585;SDS011;2815;54.094;12.112;2023-09-30T14:35:40;9.75;;;1.10;;
5585;SDS011;2815;54.094;12.112;2023-09-30T14:38:10;11.20;;;1.40;;
5585;SDS011;2815;54.094;12.112;2023-09-30T14:40:38;11.77;;;2.42;;
5585;SDS011;2815;54.094;12.112;2023-09-30T14:43:07;6.78;;;1.40;;
5585;SDS011;2815;54.094;12.112;2023-09-30T14:45:37;6.30;;;1.23;;
5585;SDS011;2815;54.094;12.112;2023-09-30T14:48:07;10.13;;;1.60;;
5585;SDS011;2815;54.094;12.112;2023-09-30T14:50:35;7.60;;;1.15;;
5585;SDS011;2815;54.094;12.112;2023-09-30T14:53:04;10.27;;;1.45;;
5585;SDS011;2815;54.094;12.112;2023-09-30T14:55:32;7.72;;;1.30;;
5585;SDS011;2815;54.094;12.112;2023-09-30T14:58:00;5.82;;;1.63;;
5585;SDS011;2815;54.094;12.112;2023-09-30T15:00:29;6.75;;;1.20;;
5585;SDS011;2815;54.094;12.112;2023-09-30T15:02:57;6.28;;;1.13;;
5585;SDS011;2815;54.094;12.112;2023-09-30T15:05:26;9.32;;;1.77;;
5585;SDS011;2815;54.094;12.112;2023-09-30T15:07:54;7.28;;;1.30;;
5585;SDS011;2815;54.094;12.112;2023-09-30T15:10:22;11.05;;;1.50;;
5585;SDS011;2815;54.094;12.112;2023-09-30T15:12:50;5.95;;;1.17;;
5585;SDS011;2815;54.094;12.112;2023-09-30T15:15:19;6.93;;;1.30;;
5585;SDS011;2815;54.094;12.112;2023-09-30T15:17:47;7.00;;;1.27;;
5585;SDS011;2815;54.094;12.112;2023-09-30T15:20:15;9.05;;;1.17;;
5585;SDS011;2815;54.094;12.112;2023-09-30T15:22:45;8.05;;;1.00;;
5585;SDS011;2815;54.094;12.112;2023-09-30T15:25:13;10.05;;;1.63;;
5585;SDS011;2815;54.094;12.112;2023-09-30T15:27:43;8.52;;;1.70;;
5585;SDS011;2815;54.094;12.112;2023-09-30T15:30:12;9.57;;;1.75;;